This is the latest recevied weather packets stored in our database for station/object VA3JLF-1. If no packets are shown the sender has not sent any weather packets the latest 10 day(s).
| Time | Temp. | Humidity | Pressure | Rain* | Wind** | Luminosity | Snow |
|---|---|---|---|---|---|---|---|
| 1777990558 | 17.22° C | 76% | 998.4 hPa | 0 mm | - | - | - |
| 1777989958 | 19.44° C | 71% | 998.1 hPa | 0 mm | - | - | - |
| 1777989358 | 20° C | 70% | 997.6 hPa | 0 mm | - | - | - |
| 1777988758 | 18.89° C | 74% | 997.7 hPa | 0 mm | - | - | - |
| 1777988158 | 17.78° C | 76% | 997.7 hPa | 0 mm | - | - | - |
| 1777987558 | 17.22° C | 77% | 997.5 hPa | 0 mm | - | - | - |
| 1777986958 | 16.67° C | 78% | 997.8 hPa | 0 mm | - | - | - |
| 1777986358 | 16.11° C | 79% | 997.5 hPa | 0 mm | - | - | - |
| 1777985758 | 15.56° C | 80% | 997.5 hPa | 0 mm | - | - | - |
| 1777985158 | 15° C | 82% | 997.7 hPa | 0 mm | - | - | - |
| 1777984559 | 15° C | 81% | 997.6 hPa | 0 mm | - | - | - |
| 1777983959 | 15° C | 81% | 997.4 hPa | 0 mm | - | - | - |
| 1777983359 | 14.44° C | 82% | 997.4 hPa | 0 mm | - | - | - |
| 1777982759 | 14.44° C | 83% | 997.3 hPa | 0 mm | - | - | - |
| 1777982159 | 14.44° C | 82% | 997.6 hPa | 0 mm | - | - | - |
| 1777981558 | 14.44° C | 82% | 997.5 hPa | 0 mm | - | - | - |
| 1777980959 | 14.44° C | 84% | 997.4 hPa | 0 mm | - | - | - |
| 1777980359 | 14.44° C | 84% | 997.2 hPa | 0 mm | - | - | - |
| 1777979760 | 13.89° C | 85% | 997.2 hPa | 0 mm | - | - | - |
| 1777979159 | 13.89° C | 85% | 996.9 hPa | 0 mm | - | - | - |
| 1777978559 | 14.44° C | 85% | 996.9 hPa | 0 mm | - | - | - |
| 1777977959 | 14.44° C | 85% | 996.9 hPa | 0 mm | - | - | - |
| 1777977358 | 14.44° C | 85% | 996.7 hPa | 0 mm | - | - | - |
| 1777976757 | 14.44° C | 85% | 996.6 hPa | 0 mm | - | - | - |
| 1777976158 | 14.44° C | 85% | 996.6 hPa | 0 mm | - | - | - |
* Rain latest hour (hover to see other rain measurements)
** Current wind speed in m/s (hover to see current wind gust speed)